Tipton, Oklahoma
Current Conditions -  °F | °C
As of 7:58 AM on Sunday 25 Jan 2015 (Local Time) from KLTS Reporting Station
Clear Clear  
Wind Chill: 36°   Ceiling: Unl
Heat Index: 43°   Visibility: 10mi
Dew Point: 31°   Wind: 15mph
Humidity: 63%   Direction: 310°NW
Pressure: 30.09"   Gusts: NA
Location:  34.5°N, 99.14°W
Report Text: KLTS 251358Z AUTO 31013KT 10SM CLR 06/00 A3009 RMK AO2 SLP193 T00621003 $
Loading
Personal Weather Stations






























Interactive Weather Map New forecast layout! Learn more

10-Day Weather Forecast

Advertisements
Track Severe Weather on mobile